createdAt,value
2018-04-02T00:00:23.834Z,54.60
2018-04-02T00:02:52.153Z,51.60
2018-04-02T00:05:20.408Z,54.03
2018-04-02T00:07:48.651Z,54.37
2018-04-02T00:10:16.930Z,53.97
2018-04-02T00:12:45.182Z,53.23
2018-04-02T00:15:14.244Z,51.73
2018-04-02T00:17:42.539Z,50.50
2018-04-02T00:20:10.790Z,53.07
2018-04-02T00:22:39.053Z,52.43
2018-04-02T00:25:07.298Z,53.20
2018-04-02T00:27:35.562Z,51.30
2018-04-02T00:30:03.821Z,53.87
2018-04-02T00:32:32.063Z,54.70
2018-04-02T00:35:01.288Z,53.53
2018-04-02T00:37:29.529Z,51.40
2018-04-02T00:39:57.795Z,52.57
2018-04-02T00:42:26.048Z,52.90
2018-04-02T00:44:54.321Z,51.50
2018-04-02T00:47:22.569Z,52.40
2018-04-02T00:49:50.845Z,50.63
2018-04-02T00:52:19.125Z,49.50
2018-04-02T00:54:47.367Z,50.97
2018-04-02T00:57:15.637Z,54.27
2018-04-02T00:59:43.970Z,52.20
2018-04-02T01:02:12.985Z,52.13
2018-04-02T01:04:41.231Z,51.47
2018-04-02T01:07:12.111Z,52.03
2018-04-02T01:09:40.377Z,51.47
2018-04-02T01:12:08.668Z,53.03
2018-04-02T01:14:37.665Z,52.60
2018-04-02T01:17:05.918Z,52.73
2018-04-02T01:19:34.175Z,50.00
2018-04-02T01:22:03.253Z,50.70
2018-04-02T01:24:31.490Z,49.67
2018-04-02T01:27:00.556Z,48.17
2018-04-02T01:29:28.826Z,50.43
2018-04-02T01:31:57.089Z,50.40
2018-04-02T01:34:25.347Z,49.80
2018-04-02T01:36:53.600Z,48.83
2018-04-02T01:39:21.854Z,49.67
2018-04-02T01:41:50.186Z,51.20
2018-04-02T01:44:18.430Z,52.03
2018-04-02T01:46:47.468Z,49.50
2018-04-02T01:49:15.735Z,52.30
2018-04-02T01:51:44.858Z,51.40
2018-04-02T01:54:13.109Z,50.57
2018-04-02T01:56:42.138Z,49.83
2018-04-02T01:59:10.390Z,52.73
2018-04-02T02:01:38.701Z,53.17
2018-04-02T02:04:07.941Z,47.80
2018-04-02T02:06:36.167Z,51.90
2018-04-02T02:09:05.239Z,49.27
2018-04-02T02:11:33.499Z,52.57
2018-04-02T02:14:02.646Z,50.53
2018-04-02T02:16:30.904Z,51.13
2018-04-02T02:18:59.142Z,49.90
2018-04-02T02:21:28.162Z,49.53
2018-04-02T02:23:56.557Z,49.30
2018-04-02T02:26:24.804Z,49.03
2018-04-02T02:28:53.809Z,50.07
2018-04-02T02:31:22.040Z,49.80
2018-04-02T02:33:50.302Z,51.53
2018-04-02T02:36:18.565Z,49.80
2018-04-02T02:38:46.813Z,48.13
2018-04-02T02:41:15.067Z,48.03
2018-04-02T02:43:44.061Z,44.73
2018-04-02T02:46:12.339Z,46.83
2018-04-02T02:48:40.593Z,50.20
2018-04-02T02:51:09.449Z,47.37
2018-04-02T02:53:37.753Z,50.03
2018-04-02T02:56:06.088Z,45.40
2018-04-02T02:58:34.478Z,46.80
2018-04-02T03:01:02.709Z,49.47
2018-04-02T03:03:31.722Z,46.93
2018-04-02T03:05:59.999Z,46.80
2018-04-02T03:08:28.303Z,45.10
2018-04-02T03:10:56.556Z,47.70
2018-04-02T03:13:24.796Z,45.23
2018-04-02T03:15:53.053Z,46.23
2018-04-02T03:18:21.288Z,44.83
2018-04-02T03:20:49.529Z,45.30
2018-04-02T03:23:18.650Z,47.90
2018-04-02T03:25:46.889Z,47.50
2018-04-02T03:28:15.218Z,46.33
2018-04-02T03:30:43.465Z,45.90
2018-04-02T03:33:12.582Z,46.10
2018-04-02T03:35:41.582Z,48.30
2018-04-02T03:38:09.821Z,48.80
2018-04-02T03:40:38.259Z,51.80
2018-04-02T03:43:06.499Z,51.53
2018-04-02T03:45:34.935Z,47.80
2018-04-02T03:48:03.174Z,51.73
2018-04-02T03:50:31.446Z,51.50
2018-04-02T03:52:59.680Z,50.57
2018-04-02T03:55:27.914Z,49.87
2018-04-02T03:57:57.101Z,50.77
2018-04-02T04:00:25.337Z,51.93
2018-04-02T04:02:53.811Z,51.37
2018-04-02T04:05:22.901Z,51.20
2018-04-02T04:07:51.184Z,53.80
2018-04-02T04:10:19.417Z,51.53
2018-04-02T04:12:49.189Z,52.20
2018-04-02T04:15:17.444Z,49.93
2018-04-02T04:17:45.698Z,52.17
2018-04-02T04:20:14.056Z,53.43
2018-04-02T04:22:42.343Z,51.20
2018-04-02T04:25:10.613Z,50.40
2018-04-02T04:27:38.875Z,51.87
2018-04-02T04:30:07.266Z,51.30
2018-04-02T04:32:35.530Z,50.87
2018-04-02T04:35:03.768Z,48.47
2018-04-02T04:37:32.792Z,51.30
2018-04-02T04:40:01.103Z,48.80
2018-04-02T04:42:29.356Z,47.30
2018-04-02T04:44:57.600Z,54.00
2018-04-02T04:47:25.957Z,52.43
2018-04-02T04:49:55.922Z,52.10
2018-04-02T04:52:24.169Z,50.63
2018-04-02T04:54:52.595Z,52.03
2018-04-02T04:57:20.849Z,48.50
2018-04-02T04:59:49.111Z,54.70
2018-04-02T05:02:17.364Z,53.63
2018-04-02T05:04:45.615Z,51.13
2018-04-02T05:07:14.754Z,50.30
2018-04-02T05:09:42.980Z,49.63
2018-04-02T05:12:11.217Z,48.40
2018-04-02T05:14:39.482Z,45.10
2018-04-02T05:17:08.473Z,45.90
2018-04-02T05:19:36.731Z,47.50
2018-04-02T05:22:04.980Z,46.20
2018-04-02T05:24:33.411Z,44.47
2018-04-02T05:27:01.637Z,45.10
2018-04-02T05:29:29.915Z,43.43
2018-04-02T05:31:58.136Z,45.90
2018-04-02T05:34:26.398Z,43.13
2018-04-02T05:36:54.645Z,46.20
2018-04-02T05:39:23.052Z,45.60
2018-04-02T05:41:52.046Z,46.90
2018-04-02T05:44:20.298Z,43.43
2018-04-02T05:46:48.553Z,44.57
2018-04-02T05:49:16.816Z,47.30
2018-04-02T05:51:46.628Z,43.43
2018-04-02T05:54:14.886Z,46.07
2018-04-02T05:56:43.143Z,41.73
2018-04-02T05:59:11.478Z,46.20
2018-04-02T06:01:40.620Z,41.67
2018-04-02T06:04:08.879Z,41.23
2018-04-02T06:06:37.390Z,42.20
2018-04-02T06:09:06.089Z,40.13
2018-04-02T06:11:35.146Z,41.27
2018-04-02T06:14:04.185Z,39.70
2018-04-02T06:16:33.441Z,40.03
2018-04-02T06:19:01.750Z,40.10
2018-04-02T06:21:30.017Z,39.07
2018-04-02T06:23:58.258Z,39.43
2018-04-02T06:26:27.303Z,39.67
2018-04-02T06:28:55.534Z,40.40
2018-04-02T06:31:24.556Z,40.20
2018-04-02T06:33:52.824Z,37.53
2018-04-02T06:36:21.285Z,38.90
2018-04-02T06:38:49.521Z,35.63
2018-04-02T06:41:17.804Z,35.47
2018-04-02T06:43:46.080Z,37.40
2018-04-02T06:46:14.382Z,36.97
2018-04-02T06:48:42.625Z,39.27
2018-04-02T06:51:10.907Z,35.87
2018-04-02T06:53:39.957Z,36.57
2018-04-02T06:56:08.217Z,35.10
2018-04-02T06:58:36.480Z,35.07
2018-04-02T07:01:04.735Z,35.10
2018-04-02T07:03:32.978Z,35.60
2018-04-02T07:06:03.403Z,35.00
2018-04-02T07:08:31.661Z,35.23
2018-04-02T07:10:59.955Z,34.00
2018-04-02T07:13:28.193Z,35.17
2018-04-02T07:15:56.434Z,34.60
2018-04-02T07:18:24.688Z,31.17
2018-04-02T07:20:52.957Z,33.87
2018-04-02T07:23:21.199Z,31.13
2018-04-02T07:25:49.474Z,32.63
2018-04-02T07:28:17.750Z,32.97
2018-04-02T07:30:46.961Z,30.53
2018-04-02T07:33:16.018Z,29.73
2018-04-02T07:35:44.292Z,29.27
2018-04-02T07:38:12.554Z,29.27
2018-04-02T07:40:40.817Z,30.90
2018-04-02T07:43:09.093Z,32.90
2018-04-02T07:45:37.355Z,27.83
2018-04-02T07:48:06.591Z,27.47
2018-04-02T07:50:35.080Z,29.40
2018-04-02T07:53:03.373Z,27.87
2018-04-02T07:55:31.597Z,26.00
2018-04-02T07:58:00.711Z,27.77
2018-04-02T08:00:28.969Z,27.20
2018-04-02T08:02:57.234Z,24.93
2018-04-02T08:05:26.259Z,26.73
2018-04-02T08:07:54.510Z,23.30
2018-04-02T08:10:22.909Z,25.37
2018-04-02T08:12:51.174Z,25.70
2018-04-02T08:15:19.445Z,22.30
2018-04-02T08:17:47.765Z,25.93
2018-04-02T08:20:15.958Z,22.30
2018-04-02T08:22:44.268Z,22.17
2018-04-02T08:25:12.708Z,21.57
2018-04-02T08:27:40.964Z,21.10
2018-04-02T08:30:09.206Z,19.43
2018-04-02T08:32:37.550Z,21.47
2018-04-02T08:35:06.199Z,20.73
2018-04-02T08:37:35.295Z,21.63
2018-04-02T08:40:03.562Z,23.27
2018-04-02T08:42:31.869Z,21.93
2018-04-02T08:45:00.125Z,21.37
2018-04-02T08:47:28.433Z,20.30
2018-04-02T08:49:56.720Z,18.83
2018-04-02T08:52:25.185Z,18.93
2018-04-02T08:54:53.410Z,19.27
2018-04-02T08:57:21.681Z,19.10
2018-04-02T08:59:49.925Z,18.80
2018-04-02T09:02:18.978Z,17.67
2018-04-02T09:04:47.357Z,16.03
2018-04-02T09:07:16.503Z,17.80
2018-04-02T09:09:44.774Z,16.87
2018-04-02T09:12:13.034Z,18.83
2018-04-02T09:14:41.318Z,15.83
2018-04-02T09:17:09.548Z,15.40
2018-04-02T09:19:37.841Z,15.83
2018-04-02T09:22:06.322Z,17.40
2018-04-02T09:24:34.582Z,14.13
2018-04-02T09:27:03.647Z,14.93
2018-04-02T09:29:34.007Z,13.67
2018-04-02T09:32:02.265Z,14.73
2018-04-02T09:34:30.532Z,15.87
2018-04-02T09:36:58.792Z,14.60
2018-04-02T09:39:28.707Z,15.10
2018-04-02T09:41:57.725Z,14.80
2018-04-02T09:44:25.999Z,13.77
2018-04-02T09:46:55.019Z,11.90
2018-04-02T09:49:23.278Z,13.03
2018-04-02T09:51:51.601Z,13.90
2018-04-02T09:54:20.770Z,12.60
2018-04-02T09:56:49.007Z,12.83
2018-04-02T09:59:17.401Z,11.50
2018-04-02T10:01:46.509Z,12.50
2018-04-02T10:04:17.401Z,10.43
2018-04-02T10:06:45.661Z,11.87
2018-04-02T10:09:14.901Z,12.47
2018-04-02T10:11:43.238Z,10.03
2018-04-02T10:14:12.365Z,10.23
2018-04-02T10:16:41.420Z,10.43
2018-04-02T10:19:09.675Z,10.47
2018-04-02T10:21:38.489Z,8.93
2018-04-02T10:24:06.851Z,9.40
2018-04-02T10:26:35.066Z,9.27
2018-04-02T10:29:03.319Z,9.73
2018-04-02T10:31:32.366Z,10.53
2018-04-02T10:34:00.639Z,9.37
2018-04-02T10:36:28.874Z,8.43
2018-04-02T10:38:57.154Z,9.40
2018-04-02T10:41:26.236Z,8.77
2018-04-02T10:43:55.200Z,9.70
2018-04-02T10:46:23.472Z,9.80
2018-04-02T10:48:52.751Z,8.40
2018-04-02T10:51:21.730Z,9.77
2018-04-02T10:53:50.026Z,9.10
2018-04-02T10:56:18.273Z,8.63
2018-04-02T10:58:46.561Z,8.67
2018-04-02T11:01:14.876Z,8.27
2018-04-02T11:03:43.124Z,7.43
2018-04-02T11:06:11.435Z,8.60
2018-04-02T11:08:39.668Z,8.30
2018-04-02T11:11:07.930Z,8.63
2018-04-02T11:13:36.193Z,7.50
2018-04-02T11:16:04.468Z,7.13
2018-04-02T11:18:33.602Z,6.57
2018-04-02T11:21:01.834Z,7.50
2018-04-02T11:23:30.134Z,6.30
2018-04-02T11:25:58.513Z,6.30
2018-04-02T11:28:27.511Z,7.83
2018-04-02T11:30:55.788Z,6.60
2018-04-02T11:33:24.793Z,7.60
2018-04-02T11:35:53.939Z,6.70
2018-04-02T11:38:22.186Z,7.37
2018-04-02T11:40:50.460Z,7.10
2018-04-02T11:43:18.709Z,5.70
2018-04-02T11:45:47.005Z,5.63
2018-04-02T11:48:15.256Z,6.30
2018-04-02T11:50:43.482Z,4.67
2018-04-02T11:53:11.746Z,5.53
2018-04-02T11:55:40.113Z,5.00
2018-04-02T11:58:08.360Z,5.70
2018-04-02T12:00:36.607Z,5.70
2018-04-02T12:03:04.845Z,6.47
2018-04-02T12:05:33.077Z,5.73
2018-04-02T12:08:02.913Z,4.70
2018-04-02T12:10:31.166Z,5.00
2018-04-02T12:12:59.412Z,5.80
2018-04-02T12:15:27.667Z,4.47
2018-04-02T12:17:55.901Z,5.00
2018-04-02T12:20:24.933Z,5.30
2018-04-02T12:22:53.195Z,4.37
2018-04-02T12:25:21.457Z,4.20
2018-04-02T12:27:49.730Z,4.00
2018-04-02T12:30:18.853Z,3.40
2018-04-02T12:32:47.117Z,2.73
2018-04-02T12:35:15.408Z,3.10
2018-04-02T12:37:43.659Z,2.40
2018-04-02T12:40:12.151Z,2.17
2018-04-02T12:42:40.518Z,2.80
2018-04-02T12:45:11.885Z,2.67
2018-04-02T12:47:40.728Z,2.73
2018-04-02T12:50:09.172Z,2.73
2018-04-02T12:52:37.685Z,2.10
2018-04-02T12:55:06.491Z,2.80
2018-04-02T12:57:34.786Z,2.30
2018-04-02T13:00:03.135Z,3.07
2018-04-02T13:02:31.646Z,2.43
2018-04-02T13:05:01.822Z,2.10
2018-04-02T13:07:30.175Z,2.10
2018-04-02T13:09:58.601Z,2.73
2018-04-02T13:12:26.840Z,2.07
2018-04-02T13:14:55.075Z,2.90
2018-04-02T13:17:23.342Z,2.07
2018-04-02T13:19:51.609Z,2.50
2018-04-02T13:22:20.609Z,2.40
2018-04-02T13:24:48.954Z,2.57
2018-04-02T13:27:17.188Z,2.10
2018-04-02T13:29:45.439Z,2.67
2018-04-02T13:32:13.789Z,2.97
2018-04-02T13:34:42.049Z,2.40
2018-04-02T13:37:11.138Z,2.50
2018-04-02T13:39:39.419Z,2.40
2018-04-02T13:42:07.685Z,2.40
2018-04-02T13:44:36.039Z,2.70
2018-04-02T13:47:04.501Z,3.40
2018-04-02T13:49:32.747Z,3.30
2018-04-02T13:52:01.033Z,2.73
2018-04-02T13:54:30.263Z,3.37
2018-04-02T13:56:59.541Z,2.77
2018-04-02T13:59:28.663Z,2.77
2018-04-02T14:01:56.945Z,2.60
2018-04-02T14:04:25.600Z,3.03
2018-04-02T14:06:53.826Z,3.47
2018-04-02T14:09:22.073Z,3.00
2018-04-02T14:11:50.365Z,2.70
2018-04-02T14:14:18.588Z,3.47
2018-04-02T14:16:47.628Z,2.60
2018-04-02T14:19:15.984Z,2.83
2018-04-02T14:21:44.982Z,2.70
2018-04-02T14:24:15.147Z,2.90
2018-04-02T14:26:43.463Z,3.00
2018-04-02T14:29:11.725Z,2.43
2018-04-02T14:31:40.944Z,3.07
2018-04-02T14:34:09.267Z,2.50
2018-04-02T14:36:37.577Z,2.47
2018-04-02T14:39:05.889Z,2.20
2018-04-02T14:41:35.709Z,2.53
2018-04-02T14:44:04.153Z,2.60
2018-04-02T14:46:32.491Z,2.67
2018-04-02T14:49:00.928Z,2.50
2018-04-02T14:51:29.930Z,2.20
2018-04-02T14:53:58.970Z,2.47
2018-04-02T14:56:27.510Z,2.93
2018-04-02T14:58:55.759Z,2.40
2018-04-02T15:01:24.012Z,3.03
2018-04-02T15:03:52.434Z,3.50
2018-04-02T15:06:21.422Z,2.63
2018-04-02T15:08:50.572Z,2.80
2018-04-02T15:11:19.017Z,2.50
2018-04-02T15:13:48.562Z,3.00
2018-04-02T15:16:16.828Z,2.77
2018-04-02T15:18:45.062Z,2.47
2018-04-02T15:21:14.105Z,2.83
2018-04-02T15:23:43.128Z,3.10
2018-04-02T15:26:11.438Z,3.10
2018-04-02T15:28:39.756Z,2.57
2018-04-02T15:31:08.805Z,2.90
2018-04-02T15:33:37.062Z,3.30
2018-04-02T15:36:05.329Z,2.20
2018-04-02T15:38:33.565Z,2.53
2018-04-02T15:41:01.911Z,3.07
2018-04-02T15:43:30.246Z,2.97
2018-04-02T15:45:58.481Z,2.67
2018-04-02T15:48:26.809Z,2.33
2018-04-02T15:50:55.102Z,2.17
2018-04-02T15:53:24.246Z,2.57
2018-04-02T15:55:52.646Z,2.57
2018-04-02T15:58:20.948Z,2.70
2018-04-02T16:00:49.182Z,3.07
2018-04-02T16:03:17.510Z,3.00
2018-04-02T16:05:46.554Z,2.80
2018-04-02T16:08:14.813Z,2.70
2018-04-02T16:10:43.855Z,3.47
2018-04-02T16:13:12.892Z,2.50
2018-04-02T16:15:41.900Z,3.70
2018-04-02T16:18:10.282Z,3.13
2018-04-02T16:20:38.551Z,2.87
2018-04-02T16:23:06.802Z,2.80
2018-04-02T16:25:35.841Z,2.73
2018-04-02T16:28:04.082Z,2.70
2018-04-02T16:30:32.553Z,2.93
2018-04-02T16:33:01.727Z,3.10
2018-04-02T16:35:30.035Z,2.97
2018-04-02T16:37:58.388Z,3.27
2018-04-02T16:40:27.700Z,2.50
2018-04-02T16:42:55.937Z,2.70
2018-04-02T16:45:25.062Z,2.40
2018-04-02T16:47:54.145Z,2.27
2018-04-02T16:50:23.218Z,2.63
2018-04-02T16:52:51.565Z,2.30
2018-04-02T16:55:20.657Z,2.53
2018-04-02T16:57:48.933Z,2.80
2018-04-02T17:00:17.993Z,2.60
2018-04-02T17:02:46.251Z,2.80
2018-04-02T17:05:14.562Z,3.47
2018-04-02T17:07:42.869Z,2.43
2018-04-02T17:10:12.050Z,2.80
2018-04-02T17:12:40.664Z,2.30
2018-04-02T17:15:09.004Z,3.10
2018-04-02T17:17:37.317Z,2.60
2018-04-02T17:20:05.727Z,3.43
2018-04-02T17:22:34.669Z,2.50
2018-04-02T17:25:03.697Z,3.07
2018-04-02T17:27:32.145Z,3.30
2018-04-02T17:30:01.241Z,3.00
2018-04-02T17:32:29.566Z,2.80
2018-04-02T17:34:57.847Z,2.50
2018-04-02T17:37:26.878Z,3.20
2018-04-02T17:39:55.336Z,3.40
2018-04-02T17:42:23.623Z,3.13
2018-04-02T17:44:51.862Z,3.13
2018-04-02T17:47:21.845Z,3.17
2018-04-02T17:49:50.149Z,3.43
2018-04-02T17:52:20.214Z,2.90
2018-04-02T17:54:51.165Z,3.00
2018-04-02T17:57:21.099Z,3.03
2018-04-02T17:59:49.345Z,3.20
2018-04-02T18:02:18.968Z,3.00
2018-04-02T18:04:47.282Z,3.00
2018-04-02T18:07:16.118Z,4.57
2018-04-02T18:09:45.148Z,3.27
2018-04-02T18:12:13.514Z,3.17
2018-04-02T18:14:41.722Z,2.50
2018-04-02T18:17:10.039Z,2.60
2018-04-02T18:19:38.345Z,3.27
2018-04-02T18:22:07.226Z,3.60
2018-04-02T18:24:36.370Z,3.13
2018-04-02T18:27:06.149Z,3.30
2018-04-02T18:29:38.585Z,3.10
2018-04-02T18:32:06.877Z,3.33
2018-04-02T18:34:35.137Z,3.20
2018-04-02T18:37:03.431Z,3.00
2018-04-02T18:39:31.663Z,3.77
2018-04-02T18:42:00.061Z,3.13
2018-04-02T18:44:29.269Z,3.23
2018-04-02T18:46:58.933Z,3.20
2018-04-02T18:49:29.547Z,2.90
2018-04-02T18:51:57.981Z,3.80
2018-04-02T18:54:26.224Z,3.90
2018-04-02T18:56:54.457Z,4.37
2018-04-02T18:59:22.710Z,5.77
2018-04-02T19:01:51.059Z,6.40
2018-04-02T19:04:19.361Z,5.60
2018-04-02T19:06:49.314Z,5.10
2018-04-02T19:09:17.573Z,5.00
2018-04-02T19:11:45.856Z,3.33
2018-04-02T19:14:14.159Z,3.70
2018-04-02T19:16:42.389Z,3.80
2018-04-02T19:19:10.637Z,2.60
2018-04-02T19:21:38.889Z,2.97
2018-04-02T19:24:07.138Z,3.27
2018-04-02T19:26:36.141Z,2.47
2018-04-02T19:29:04.521Z,2.50
2018-04-02T19:31:32.781Z,2.83
2018-04-02T19:34:01.796Z,2.63
2018-04-02T19:36:30.090Z,3.10
2018-04-02T19:38:59.148Z,2.90
2018-04-02T19:41:27.397Z,3.50
2018-04-02T19:43:55.654Z,3.00
2018-04-02T19:46:23.974Z,3.13
2018-04-02T19:48:52.214Z,2.80
2018-04-02T19:51:20.647Z,2.60
2018-04-02T19:53:48.913Z,3.00
2018-04-02T19:56:17.941Z,2.70
2018-04-02T19:58:46.253Z,3.03
2018-04-02T20:01:14.470Z,2.87
2018-04-02T20:03:43.655Z,3.90
2018-04-02T20:06:12.690Z,3.00
2018-04-02T20:08:40.930Z,2.97
2018-04-02T20:11:09.171Z,3.87
2018-04-02T20:13:37.458Z,2.50
2018-04-02T20:16:06.503Z,2.70
2018-04-02T20:18:35.610Z,1.97
2018-04-02T20:21:03.834Z,2.40
2018-04-02T20:23:32.916Z,3.17
2018-04-02T20:26:01.229Z,2.33
2018-04-02T20:28:29.511Z,2.57
2018-04-02T20:30:57.767Z,2.60
2018-04-02T20:33:26.777Z,2.33
2018-04-02T20:35:55.041Z,2.30
2018-04-02T20:38:23.289Z,2.40
2018-04-02T20:40:51.544Z,2.53
2018-04-02T20:43:20.146Z,2.30
2018-04-02T20:45:48.368Z,2.23
2018-04-02T20:48:16.645Z,2.50
2018-04-02T20:50:45.739Z,2.37
2018-04-02T20:53:13.976Z,2.77
2018-04-02T20:55:43.732Z,1.77
2018-04-02T20:58:11.964Z,2.27
2018-04-02T21:00:40.277Z,2.00
2018-04-02T21:03:08.817Z,1.93
2018-04-02T21:05:37.293Z,2.40
2018-04-02T21:08:05.776Z,1.67
2018-04-02T21:10:34.509Z,1.87
2018-04-02T21:13:02.834Z,2.17
2018-04-02T21:15:31.078Z,1.50
2018-04-02T21:17:59.359Z,2.07
2018-04-02T21:20:27.657Z,2.00
2018-04-02T21:22:56.261Z,1.70
2018-04-02T21:25:26.557Z,2.17
2018-04-02T21:27:54.889Z,1.63
2018-04-02T21:30:23.204Z,1.50
2018-04-02T21:32:51.497Z,1.50
2018-04-02T21:35:19.732Z,1.57
2018-04-02T21:37:48.128Z,2.23
2018-04-02T21:40:16.441Z,1.87
2018-04-02T21:42:45.509Z,1.70
2018-04-02T21:45:13.764Z,1.70
2018-04-02T21:47:43.594Z,1.63
2018-04-02T21:50:11.853Z,1.63
2018-04-02T21:52:40.113Z,1.80
2018-04-02T21:55:08.340Z,1.53
2018-04-02T21:57:36.612Z,1.67
2018-04-02T22:00:04.983Z,1.70
2018-04-02T22:02:33.314Z,1.50
2018-04-02T22:05:01.526Z,2.10
2018-04-02T22:07:31.737Z,1.50
2018-04-02T22:10:00.000Z,1.53
2018-04-02T22:12:28.350Z,1.70
2018-04-02T22:14:56.622Z,1.70
2018-04-02T22:17:24.863Z,1.67
2018-04-02T22:19:53.100Z,1.57
2018-04-02T22:22:21.480Z,1.93
2018-04-02T22:24:49.777Z,1.67
2018-04-02T22:27:18.009Z,1.90
2018-04-02T22:29:47.143Z,1.53
2018-04-02T22:32:15.390Z,1.90
2018-04-02T22:34:44.359Z,1.90
2018-04-02T22:37:13.378Z,1.53
2018-04-02T22:39:41.623Z,1.53
2018-04-02T22:42:09.894Z,1.83
2018-04-02T22:44:38.127Z,1.70
2018-04-02T22:47:06.383Z,1.53
2018-04-02T22:49:34.839Z,1.57
2018-04-02T22:52:03.069Z,2.00
2018-04-02T22:54:31.331Z,2.50
2018-04-02T22:56:59.599Z,1.90
2018-04-02T22:59:27.860Z,1.80
2018-04-02T23:01:56.326Z,1.73
2018-04-02T23:04:25.341Z,1.20
2018-04-02T23:06:54.328Z,1.50
2018-04-02T23:09:22.610Z,1.67
2018-04-02T23:11:50.881Z,1.20
2018-04-02T23:14:19.159Z,1.90
2018-04-02T23:16:47.374Z,2.20
2018-04-02T23:19:15.682Z,1.60
2018-04-02T23:21:46.542Z,1.60
2018-04-02T23:24:14.914Z,1.77
2018-04-02T23:26:43.384Z,1.80
2018-04-02T23:29:11.596Z,1.67
2018-04-02T23:31:39.868Z,1.80
2018-04-02T23:34:08.231Z,1.60
2018-04-02T23:36:36.710Z,1.93
2018-04-02T23:39:05.020Z,1.73
2018-04-02T23:41:33.255Z,1.80
2018-04-02T23:44:01.525Z,1.80
2018-04-02T23:46:29.762Z,1.77
2018-04-02T23:48:58.053Z,1.90
2018-04-02T23:51:26.559Z,1.70
2018-04-02T23:53:55.040Z,1.90
2018-04-02T23:56:23.274Z,1.50
2018-04-02T23:58:51.513Z,1.80
